sensor_id;sensor_type;location;lat;lon;timestamp;pressure;altitude;pressure_sealevel;temperature;humidity
75208;BME280;63795;55.684;37.864;2023-07-24T00:00:40;99152.28;;;15.28;76.47
75208;BME280;63795;55.684;37.864;2023-07-24T00:05:41;99137.44;;;15.20;75.39
75208;BME280;63795;55.684;37.864;2023-07-24T00:10:41;99144.16;;;15.14;76.34
75208;BME280;63795;55.684;37.864;2023-07-24T00:15:42;99143.13;;;15.08;75.80
75208;BME280;63795;55.684;37.864;2023-07-24T00:20:42;99144.25;;;14.98;75.82
75208;BME280;63795;55.684;37.864;2023-07-24T00:25:43;99160.56;;;14.97;76.15
75208;BME280;63795;55.684;37.864;2023-07-24T00:30:43;99159.16;;;14.89;75.88
75208;BME280;63795;55.684;37.864;2023-07-24T00:35:44;99153.22;;;14.84;75.92
75208;BME280;63795;55.684;37.864;2023-07-24T00:40:44;99142.47;;;14.75;76.99
75208;BME280;63795;55.684;37.864;2023-07-24T00:45:46;99148.84;;;14.67;76.20
75208;BME280;63795;55.684;37.864;2023-07-24T00:50:47;99144.97;;;14.61;76.89
75208;BME280;63795;55.684;37.864;2023-07-24T00:55:48;99142.09;;;14.61;77.25
75208;BME280;63795;55.684;37.864;2023-07-24T01:00:49;99131.00;;;14.50;76.27
75208;BME280;63795;55.684;37.864;2023-07-24T01:05:50;99128.94;;;14.51;76.42
75208;BME280;63795;55.684;37.864;2023-07-24T01:10:50;99131.53;;;14.45;76.58
75208;BME280;63795;55.684;37.864;2023-07-24T01:16:03;99135.75;;;14.40;76.98
75208;BME280;63795;55.684;37.864;2023-07-24T01:21:10;99135.47;;;14.35;77.42
75208;BME280;63795;55.684;37.864;2023-07-24T01:26:12;99141.75;;;14.30;77.69
75208;BME280;63795;55.684;37.864;2023-07-24T01:31:13;99136.19;;;14.23;77.88
75208;BME280;63795;55.684;37.864;2023-07-24T01:36:14;99142.47;;;14.18;77.87
75208;BME280;63795;55.684;37.864;2023-07-24T01:41:15;99145.75;;;14.16;77.63
75208;BME280;63795;55.684;37.864;2023-07-24T01:46:16;99132.75;;;14.15;77.52
75208;BME280;63795;55.684;37.864;2023-07-24T01:51:16;99137.56;;;14.18;76.65
75208;BME280;63795;55.684;37.864;2023-07-24T01:56:17;99135.06;;;14.20;77.47
75208;BME280;63795;55.684;37.864;2023-07-24T02:01:18;99139.50;;;14.21;77.40
75208;BME280;63795;55.684;37.864;2023-07-24T02:06:19;99140.41;;;14.18;77.44
75208;BME280;63795;55.684;37.864;2023-07-24T02:11:20;99140.78;;;14.20;77.24
75208;BME280;63795;55.684;37.864;2023-07-24T02:16:20;99134.25;;;14.20;77.67
75208;BME280;63795;55.684;37.864;2023-07-24T02:21:21;99137.56;;;14.18;77.32
75208;BME280;63795;55.684;37.864;2023-07-24T02:26:21;99141.47;;;14.24;76.67
75208;BME280;63795;55.684;37.864;2023-07-24T02:31:22;99140.84;;;14.33;76.42
75208;BME280;63795;55.684;37.864;2023-07-24T02:36:22;99150.78;;;14.41;76.09
75208;BME280;63795;55.684;37.864;2023-07-24T02:41:22;99151.06;;;14.46;75.79
75208;BME280;63795;55.684;37.864;2023-07-24T02:46:23;99153.34;;;14.52;76.34
75208;BME280;63795;55.684;37.864;2023-07-24T02:51:25;99149.84;;;14.60;75.79
75208;BME280;63795;55.684;37.864;2023-07-24T02:56:25;99142.88;;;14.61;76.09
75208;BME280;63795;55.684;37.864;2023-07-24T03:01:25;99150.78;;;14.70;75.33
75208;BME280;63795;55.684;37.864;2023-07-24T03:06:26;99155.97;;;14.75;75.07
75208;BME280;63795;55.684;37.864;2023-07-24T03:11:26;99156.16;;;14.68;75.51
75208;BME280;63795;55.684;37.864;2023-07-24T03:16:27;99149.09;;;14.72;75.44
75208;BME280;63795;55.684;37.864;2023-07-24T03:21:27;99147.81;;;14.73;75.41
75208;BME280;63795;55.684;37.864;2023-07-24T03:26:28;99143.28;;;14.76;75.27
75208;BME280;63795;55.684;37.864;2023-07-24T03:31:28;99148.31;;;14.84;74.98
75208;BME280;63795;55.684;37.864;2023-07-24T03:36:29;99155.88;;;14.91;74.69
75208;BME280;63795;55.684;37.864;2023-07-24T03:41:29;99153.16;;;15.00;74.37
75208;BME280;63795;55.684;37.864;2023-07-24T03:46:32;99159.22;;;15.14;74.20
75208;BME280;63795;55.684;37.864;2023-07-24T03:51:32;99154.09;;;15.22;73.89
75208;BME280;63795;55.684;37.864;2023-07-24T03:56:33;99150.69;;;15.27;73.88
75208;BME280;63795;55.684;37.864;2023-07-24T04:01:34;99157.97;;;15.28;73.25
75208;BME280;63795;55.684;37.864;2023-07-24T04:06:34;99162.47;;;15.29;73.36
75208;BME280;63795;55.684;37.864;2023-07-24T04:11:34;99156.50;;;15.36;72.98
75208;BME280;63795;55.684;37.864;2023-07-24T04:16:38;99165.25;;;15.45;72.72
75208;BME280;63795;55.684;37.864;2023-07-24T04:21:38;99169.09;;;15.51;72.56
75208;BME280;63795;55.684;37.864;2023-07-24T04:26:39;99169.78;;;15.55;72.45
75208;BME280;63795;55.684;37.864;2023-07-24T04:31:39;99162.81;;;15.56;71.70
75208;BME280;63795;55.684;37.864;2023-07-24T04:36:40;99166.72;;;15.62;71.31
75208;BME280;63795;55.684;37.864;2023-07-24T04:41:40;99167.25;;;15.70;71.16
75208;BME280;63795;55.684;37.864;2023-07-24T04:46:41;99162.91;;;15.78;71.13
75208;BME280;63795;55.684;37.864;2023-07-24T04:51:41;99158.69;;;15.95;70.43
75208;BME280;63795;55.684;37.864;2023-07-24T04:56:42;99147.78;;;16.02;70.06
75208;BME280;63795;55.684;37.864;2023-07-24T05:01:42;99147.44;;;16.13;69.00
75208;BME280;63795;55.684;37.864;2023-07-24T05:06:43;99154.31;;;16.37;69.43
75208;BME280;63795;55.684;37.864;2023-07-24T05:11:43;99149.66;;;16.65;68.23
75208;BME280;63795;55.684;37.864;2023-07-24T05:16:45;99152.50;;;16.86;67.68
75208;BME280;63795;55.684;37.864;2023-07-24T05:21:45;99152.78;;;17.01;66.19
75208;BME280;63795;55.684;37.864;2023-07-24T05:26:45;99155.09;;;17.15;65.81
75208;BME280;63795;55.684;37.864;2023-07-24T05:31:46;99157.53;;;17.26;66.23
75208;BME280;63795;55.684;37.864;2023-07-24T05:36:46;99158.97;;;17.30;64.24
75208;BME280;63795;55.684;37.864;2023-07-24T05:41:47;99153.00;;;17.37;63.77
75208;BME280;63795;55.684;37.864;2023-07-24T05:46:48;99150.16;;;17.46;64.42
75208;BME280;63795;55.684;37.864;2023-07-24T05:51:49;99150.88;;;17.59;61.95
75208;BME280;63795;55.684;37.864;2023-07-24T05:56:49;99152.31;;;17.64;61.65
75208;BME280;63795;55.684;37.864;2023-07-24T06:01:52;99153.44;;;17.66;62.83
75208;BME280;63795;55.684;37.864;2023-07-24T06:06:52;99149.94;;;17.62;61.45
75208;BME280;63795;55.684;37.864;2023-07-24T06:11:52;99147.22;;;17.59;61.03
75208;BME280;63795;55.684;37.864;2023-07-24T06:16:53;99146.56;;;17.55;61.12
75208;BME280;63795;55.684;37.864;2023-07-24T06:21:53;99153.09;;;17.55;62.07
75208;BME280;63795;55.684;37.864;2023-07-24T06:26:54;99159.34;;;17.63;62.10
75208;BME280;63795;55.684;37.864;2023-07-24T06:31:54;99171.78;;;17.69;61.81
75208;BME280;63795;55.684;37.864;2023-07-24T06:36:55;99164.06;;;17.88;61.95
75208;BME280;63795;55.684;37.864;2023-07-24T06:41:55;99167.91;;;18.12;58.98
75208;BME280;63795;55.684;37.864;2023-07-24T06:46:56;99164.44;;;18.26;59.55
75208;BME280;63795;55.684;37.864;2023-07-24T06:51:57;99170.69;;;18.42;57.90
75208;BME280;63795;55.684;37.864;2023-07-24T06:56:57;99176.28;;;18.46;59.04
75208;BME280;63795;55.684;37.864;2023-07-24T07:01:58;99172.47;;;18.49;57.96
75208;BME280;63795;55.684;37.864;2023-07-24T07:06:58;99174.38;;;18.52;57.60
75208;BME280;63795;55.684;37.864;2023-07-24T07:11:59;99171.84;;;18.45;57.96
75208;BME280;63795;55.684;37.864;2023-07-24T07:16:59;99171.78;;;18.27;58.62
75208;BME280;63795;55.684;37.864;2023-07-24T07:21:59;99170.66;;;18.24;59.62
75208;BME280;63795;55.684;37.864;2023-07-24T07:27:00;99156.44;;;18.12;59.65
75208;BME280;63795;55.684;37.864;2023-07-24T07:32:00;99164.06;;;18.06;59.57
75208;BME280;63795;55.684;37.864;2023-07-24T07:37:01;99164.06;;;18.06;59.44
75208;BME280;63795;55.684;37.864;2023-07-24T07:42:01;99166.63;;;18.04;59.48
75208;BME280;63795;55.684;37.864;2023-07-24T07:47:02;99169.19;;;18.02;59.44
75208;BME280;63795;55.684;37.864;2023-07-24T07:52:03;99170.44;;;17.92;59.95
75208;BME280;63795;55.684;37.864;2023-07-24T07:57:04;99173.31;;;17.92;60.00
75208;BME280;63795;55.684;37.864;2023-07-24T08:02:05;99153.56;;;17.94;60.44
75208;BME280;63795;55.684;37.864;2023-07-24T08:07:05;99167.56;;;17.92;60.09
75208;BME280;63795;55.684;37.864;2023-07-24T08:12:06;99162.59;;;17.92;60.12
75208;BME280;63795;55.684;37.864;2023-07-24T08:17:07;99159.25;;;17.84;60.54
75208;BME280;63795;55.684;37.864;2023-07-24T08:22:07;99162.53;;;17.74;61.36
75208;BME280;63795;55.684;37.864;2023-07-24T08:27:08;99153.13;;;17.64;61.35
75208;BME280;63795;55.684;37.864;2023-07-24T08:32:08;99143.16;;;17.47;61.70
75208;BME280;63795;55.684;37.864;2023-07-24T08:37:08;99145.75;;;17.54;61.65
75208;BME280;63795;55.684;37.864;2023-07-24T08:42:12;99144.69;;;17.61;62.81
75208;BME280;63795;55.684;37.864;2023-07-24T08:47:13;99145.94;;;17.60;62.74
75208;BME280;63795;55.684;37.864;2023-07-24T08:52:15;99138.47;;;17.62;62.71
75208;BME280;63795;55.684;37.864;2023-07-24T08:57:16;99149.31;;;17.67;62.39
75208;BME280;63795;55.684;37.864;2023-07-24T09:02:16;99141.81;;;17.70;62.58
75208;BME280;63795;55.684;37.864;2023-07-24T09:07:17;99143.94;;;17.78;62.53
75208;BME280;63795;55.684;37.864;2023-07-24T09:12:22;99141.09;;;17.88;62.61
75208;BME280;63795;55.684;37.864;2023-07-24T09:17:23;99139.66;;;17.92;62.71
75208;BME280;63795;55.684;37.864;2023-07-24T09:22:23;99129.47;;;17.91;62.90
75208;BME280;63795;55.684;37.864;2023-07-24T09:27:28;99130.94;;;17.96;63.02
75208;BME280;63795;55.684;37.864;2023-07-24T09:32:28;99133.28;;;17.88;64.15
75208;BME280;63795;55.684;37.864;2023-07-24T09:37:33;99121.81;;;17.79;66.04
75208;BME280;63795;55.684;37.864;2023-07-24T09:42:36;99115.91;;;17.82;64.71
75208;BME280;63795;55.684;37.864;2023-07-24T09:47:38;99100.31;;;17.83;65.01
75208;BME280;63795;55.684;37.864;2023-07-24T09:52:40;99098.06;;;17.78;64.50
75208;BME280;63795;55.684;37.864;2023-07-24T09:57:44;99100.91;;;17.78;65.50
75208;BME280;63795;55.684;37.864;2023-07-24T10:02:44;99076.03;;;17.66;65.86
75208;BME280;63795;55.684;37.864;2023-07-24T10:07:46;99084.47;;;17.61;66.91
75208;BME280;63795;55.684;37.864;2023-07-24T10:12:48;99084.56;;;17.48;67.64
75208;BME280;63795;55.684;37.864;2023-07-24T10:17:49;99078.50;;;17.46;67.41
75208;BME280;63795;55.684;37.864;2023-07-24T10:22:49;99071.22;;;17.15;71.05
75208;BME280;63795;55.684;37.864;2023-07-24T10:27:50;99064.03;;;16.79;71.16
75208;BME280;63795;55.684;37.864;2023-07-24T10:32:52;99057.41;;;16.61;72.55
75208;BME280;63795;55.684;37.864;2023-07-24T10:37:59;99046.56;;;16.56;71.84
75208;BME280;63795;55.684;37.864;2023-07-24T10:43:11;99046.94;;;16.67;71.41
75208;BME280;63795;55.684;37.864;2023-07-24T10:48:13;99043.47;;;16.72;70.37
75208;BME280;63795;55.684;37.864;2023-07-24T10:53:23;99032.31;;;16.65;69.80
75208;BME280;63795;55.684;37.864;2023-07-24T10:58:25;99042.38;;;16.69;69.27
75208;BME280;63795;55.684;37.864;2023-07-24T11:03:25;99036.16;;;16.71;69.53
75208;BME280;63795;55.684;37.864;2023-07-24T11:08:26;99025.38;;;16.75;69.72
75208;BME280;63795;55.684;37.864;2023-07-24T11:13:28;99026.06;;;16.57;70.71
75208;BME280;63795;55.684;37.864;2023-07-24T11:18:29;99018.59;;;16.60;71.52
75208;BME280;63795;55.684;37.864;2023-07-24T11:23:30;99022.75;;;16.59;72.61
75208;BME280;63795;55.684;37.864;2023-07-24T11:28:39;99016.59;;;16.48;72.68
75208;BME280;63795;55.684;37.864;2023-07-24T11:33:40;99015.88;;;16.35;72.96
75208;BME280;63795;55.684;37.864;2023-07-24T11:38:41;99008.53;;;16.34;72.57
75208;BME280;63795;55.684;37.864;2023-07-24T11:43:49;98989.19;;;16.38;72.59
75208;BME280;63795;55.684;37.864;2023-07-24T11:48:50;99003.56;;;16.47;72.29
75208;BME280;63795;55.684;37.864;2023-07-24T11:54:05;99001.16;;;16.45;73.77
75208;BME280;63795;55.684;37.864;2023-07-24T11:59:13;98995.03;;;16.34;74.55
75208;BME280;63795;55.684;37.864;2023-07-24T12:04:15;98991.53;;;16.08;76.88
75208;BME280;63795;55.684;37.864;2023-07-24T12:09:16;98981.47;;;16.04;77.67
75208;BME280;63795;55.684;37.864;2023-07-24T12:14:16;98983.22;;;16.01;78.21
75208;BME280;63795;55.684;37.864;2023-07-24T12:19:17;98976.91;;;15.85;80.09
75208;BME280;63795;55.684;37.864;2023-07-24T12:24:17;98962.56;;;15.63;79.65
75208;BME280;63795;55.684;37.864;2023-07-24T12:29:18;98965.81;;;15.53;81.91
75208;BME280;63795;55.684;37.864;2023-07-24T12:34:18;98949.50;;;15.41;81.26
75208;BME280;63795;55.684;37.864;2023-07-24T12:39:18;98958.88;;;15.41;81.89
75208;BME280;63795;55.684;37.864;2023-07-24T12:44:19;98957.25;;;15.40;83.18
75208;BME280;63795;55.684;37.864;2023-07-24T12:49:19;98946.78;;;15.37;81.11
75208;BME280;63795;55.684;37.864;2023-07-24T12:54:20;98928.81;;;15.37;83.89
75208;BME280;63795;55.684;37.864;2023-07-24T12:59:22;98933.53;;;15.30;83.62
75208;BME280;63795;55.684;37.864;2023-07-24T13:04:23;98924.97;;;15.30;84.13
75208;BME280;63795;55.684;37.864;2023-07-24T13:09:23;98913.88;;;15.32;82.49
75208;BME280;63795;55.684;37.864;2023-07-24T13:14:24;98903.78;;;15.41;83.15
75208;BME280;63795;55.684;37.864;2023-07-24T13:19:24;98913.41;;;15.47;83.47
75208;BME280;63795;55.684;37.864;2023-07-24T13:24:25;98906.59;;;15.53;82.13
75208;BME280;63795;55.684;37.864;2023-07-24T13:29:25;98905.41;;;15.63;80.90
75208;BME280;63795;55.684;37.864;2023-07-24T13:34:26;98910.41;;;15.72;81.00
75208;BME280;63795;55.684;37.864;2023-07-24T13:39:26;98895.97;;;15.75;80.52
75208;BME280;63795;55.684;37.864;2023-07-24T13:44:28;98891.25;;;15.81;80.59
75208;BME280;63795;55.684;37.864;2023-07-24T13:49:29;98893.22;;;15.84;80.26
75208;BME280;63795;55.684;37.864;2023-07-24T13:54:29;98890.88;;;15.92;79.76
75208;BME280;63795;55.684;37.864;2023-07-24T13:59:30;98891.72;;;16.01;79.84
75208;BME280;63795;55.684;37.864;2023-07-24T14:04:30;98879.06;;;16.11;79.50
75208;BME280;63795;55.684;37.864;2023-07-24T14:09:31;98873.09;;;16.18;79.26
75208;BME280;63795;55.684;37.864;2023-07-24T14:14:33;98873.75;;;16.23;78.11
75208;BME280;63795;55.684;37.864;2023-07-24T14:19:33;98863.28;;;16.29;78.04
75208;BME280;63795;55.684;37.864;2023-07-24T14:24:33;98854.94;;;16.43;77.77
75208;BME280;63795;55.684;37.864;2023-07-24T14:29:34;98854.88;;;16.65;77.76
75208;BME280;63795;55.684;37.864;2023-07-24T14:34:34;98843.75;;;16.76;76.84
75208;BME280;63795;55.684;37.864;2023-07-24T14:39:35;98842.50;;;16.86;76.83
75208;BME280;63795;55.684;37.864;2023-07-24T14:44:37;98846.66;;;16.94;76.58
75208;BME280;63795;55.684;37.864;2023-07-24T14:49:37;98840.16;;;17.02;76.24
75208;BME280;63795;55.684;37.864;2023-07-24T14:54:37;98844.47;;;17.16;75.87
75208;BME280;63795;55.684;37.864;2023-07-24T14:59:38;98841.75;;;17.22;75.01
75208;BME280;63795;55.684;37.864;2023-07-24T15:04:38;98835.88;;;17.25;74.96
75208;BME280;63795;55.684;37.864;2023-07-24T15:09:39;98833.47;;;17.24;75.32
75208;BME280;63795;55.684;37.864;2023-07-24T15:14:39;98822.81;;;17.24;75.12
75208;BME280;63795;55.684;37.864;2023-07-24T15:19:40;98820.94;;;17.21;74.86
75208;BME280;63795;55.684;37.864;2023-07-24T15:24:40;98818.38;;;17.23;75.09
75208;BME280;63795;55.684;37.864;2023-07-24T15:29:41;98819.34;;;17.29;74.90
75208;BME280;63795;55.684;37.864;2023-07-24T15:34:42;98819.66;;;17.31;74.86
75208;BME280;63795;55.684;37.864;2023-07-24T15:39:43;98807.88;;;17.29;74.56
75208;BME280;63795;55.684;37.864;2023-07-24T15:44:43;98803.09;;;17.26;74.85
75208;BME280;63795;55.684;37.864;2023-07-24T15:49:44;98810.09;;;17.25;74.99
75208;BME280;63795;55.684;37.864;2023-07-24T15:54:44;98797.69;;;17.28;74.76
75208;BME280;63795;55.684;37.864;2023-07-24T15:59:44;98785.09;;;17.26;74.68
75208;BME280;63795;55.684;37.864;2023-07-24T16:04:45;98772.53;;;17.32;74.67
75208;BME280;63795;55.684;37.864;2023-07-24T16:09:45;98778.09;;;17.36;74.81
75208;BME280;63795;55.684;37.864;2023-07-24T16:14:48;98783.03;;;17.35;74.93
75208;BME280;63795;55.684;37.864;2023-07-24T16:19:48;98780.50;;;17.37;74.64
75208;BME280;63795;55.684;37.864;2023-07-24T16:24:49;98791.97;;;17.37;74.89
75208;BME280;63795;55.684;37.864;2023-07-24T16:29:49;98784.44;;;17.40;75.34
75208;BME280;63795;55.684;37.864;2023-07-24T16:34:50;98785.88;;;17.44;74.91
75208;BME280;63795;55.684;37.864;2023-07-24T16:39:51;98786.38;;;17.52;74.80
75208;BME280;63795;55.684;37.864;2023-07-24T16:44:51;98784.78;;;17.60;74.97
75208;BME280;63795;55.684;37.864;2023-07-24T16:49:51;98787.00;;;17.65;74.22
75208;BME280;63795;55.684;37.864;2023-07-24T16:54:52;98779.22;;;17.65;74.83
75208;BME280;63795;55.684;37.864;2023-07-24T16:59:53;98787.47;;;17.72;74.87
75208;BME280;63795;55.684;37.864;2023-07-24T17:04:56;98793.03;;;17.76;74.76
75208;BME280;63795;55.684;37.864;2023-07-24T17:09:57;98786.66;;;17.81;74.60
75208;BME280;63795;55.684;37.864;2023-07-24T17:14:57;98784.59;;;17.81;75.17
75208;BME280;63795;55.684;37.864;2023-07-24T17:19:58;98797.00;;;17.78;75.48
75208;BME280;63795;55.684;37.864;2023-07-24T17:24:58;98804.66;;;17.72;74.70
75208;BME280;63795;55.684;37.864;2023-07-24T17:29:59;98809.44;;;17.75;75.25
75208;BME280;63795;55.684;37.864;2023-07-24T17:35:00;98818.06;;;17.75;75.43
75208;BME280;63795;55.684;37.864;2023-07-24T17:40:00;98810.25;;;17.67;76.19
75208;BME280;63795;55.684;37.864;2023-07-24T17:45:02;98817.09;;;17.60;76.20
75208;BME280;63795;55.684;37.864;2023-07-24T17:50:03;98809.16;;;17.55;76.09
75208;BME280;63795;55.684;37.864;2023-07-24T17:55:04;98819.69;;;17.49;75.62
75208;BME280;63795;55.684;37.864;2023-07-24T18:00:05;98819.63;;;17.40;76.40
75208;BME280;63795;55.684;37.864;2023-07-24T18:05:06;98823.16;;;17.35;76.86
75208;BME280;63795;55.684;37.864;2023-07-24T18:10:07;98832.22;;;17.34;76.14
75208;BME280;63795;55.684;37.864;2023-07-24T18:15:08;98833.00;;;17.34;75.97
75208;BME280;63795;55.684;37.864;2023-07-24T18:20:09;98817.41;;;17.26;77.63
75208;BME280;63795;55.684;37.864;2023-07-24T18:25:09;98823.63;;;17.25;76.40
75208;BME280;63795;55.684;37.864;2023-07-24T18:30:10;98825.53;;;17.19;76.48
75208;BME280;63795;55.684;37.864;2023-07-24T18:35:11;98826.63;;;17.12;76.18
75208;BME280;63795;55.684;37.864;2023-07-24T18:40:13;98825.50;;;17.10;76.46
75208;BME280;63795;55.684;37.864;2023-07-24T18:45:13;98819.31;;;17.02;77.09
75208;BME280;63795;55.684;37.864;2023-07-24T18:50:15;98814.38;;;16.93;77.13
75208;BME280;63795;55.684;37.864;2023-07-24T18:55:15;98826.63;;;16.94;77.58
75208;BME280;63795;55.684;37.864;2023-07-24T19:00:16;98820.25;;;16.90;77.02
75208;BME280;63795;55.684;37.864;2023-07-24T19:05:17;98820.56;;;16.83;77.28
75208;BME280;63795;55.684;37.864;2023-07-24T19:10:18;98830.41;;;16.82;76.89
75208;BME280;63795;55.684;37.864;2023-07-24T19:15:19;98837.09;;;16.79;77.92
75208;BME280;63795;55.684;37.864;2023-07-24T19:20:19;98833.28;;;16.73;77.46
75208;BME280;63795;55.684;37.864;2023-07-24T19:25:21;98839.63;;;16.77;77.26
75208;BME280;63795;55.684;37.864;2023-07-24T19:30:21;98848.22;;;16.77;77.75
75208;BME280;63795;55.684;37.864;2023-07-24T19:35:22;98836.47;;;16.75;78.12
75208;BME280;63795;55.684;37.864;2023-07-24T19:40:22;98830.56;;;16.69;78.38
75208;BME280;63795;55.684;37.864;2023-07-24T19:45:23;98837.69;;;16.65;80.01
75208;BME280;63795;55.684;37.864;2023-07-24T19:50:23;98827.34;;;16.58;79.59
75208;BME280;63795;55.684;37.864;2023-07-24T19:55:24;98819.41;;;16.53;77.88
75208;BME280;63795;55.684;37.864;2023-07-24T20:00:24;98825.88;;;16.54;77.90
75208;BME280;63795;55.684;37.864;2023-07-24T20:05:24;98815.88;;;16.49;77.71
75208;BME280;63795;55.684;37.864;2023-07-24T20:10:25;98809.00;;;16.47;78.05
75208;BME280;63795;55.684;37.864;2023-07-24T20:15:26;98819.53;;;16.50;78.21
75208;BME280;63795;55.684;37.864;2023-07-24T20:20:27;98823.31;;;16.47;78.43
75208;BME280;63795;55.684;37.864;2023-07-24T20:25:27;98820.72;;;16.40;79.16
75208;BME280;63795;55.684;37.864;2023-07-24T20:30:28;98807.84;;;16.35;81.26
75208;BME280;63795;55.684;37.864;2023-07-24T20:35:29;98814.19;;;16.30;80.05
75208;BME280;63795;55.684;37.864;2023-07-24T20:40:29;98814.34;;;16.27;80.86
75208;BME280;63795;55.684;37.864;2023-07-24T20:45:30;98799.53;;;16.19;80.87
75208;BME280;63795;55.684;37.864;2023-07-24T20:50:37;98785.84;;;16.14;80.36
75208;BME280;63795;55.684;37.864;2023-07-24T20:55:38;98789.19;;;16.12;80.72
75208;BME280;63795;55.684;37.864;2023-07-24T21:00:38;98785.34;;;16.06;80.19
75208;BME280;63795;55.684;37.864;2023-07-24T21:05:39;98794.25;;;16.08;80.95
75208;BME280;63795;55.684;37.864;2023-07-24T21:10:39;98784.06;;;16.07;81.20
75208;BME280;63795;55.684;37.864;2023-07-24T21:15:40;98789.13;;;16.03;81.45
75208;BME280;63795;55.684;37.864;2023-07-24T21:20:40;98777.03;;;15.99;81.27
75208;BME280;63795;55.684;37.864;2023-07-24T21:25:52;98792.78;;;16.04;79.89
75208;BME280;63795;55.684;37.864;2023-07-24T21:30:55;98800.09;;;16.05;79.42
75208;BME280;63795;55.684;37.864;2023-07-24T21:35:59;98791.97;;;16.03;80.03
75208;BME280;63795;55.684;37.864;2023-07-24T21:41:00;98786.25;;;16.03;79.38
75208;BME280;63795;55.684;37.864;2023-07-24T21:46:00;98792.13;;;16.00;79.41
75208;BME280;63795;55.684;37.864;2023-07-24T21:51:01;98798.00;;;15.96;79.61
75208;BME280;63795;55.684;37.864;2023-07-24T21:56:01;98807.16;;;15.91;81.09
75208;BME280;63795;55.684;37.864;2023-07-24T22:01:02;98794.41;;;15.83;80.19
75208;BME280;63795;55.684;37.864;2023-07-24T22:06:02;98793.44;;;15.77;80.26
75208;BME280;63795;55.684;37.864;2023-07-24T22:11:10;98799.78;;;15.72;81.04
75208;BME280;63795;55.684;37.864;2023-07-24T22:16:11;98803.88;;;15.71;81.74
75208;BME280;63795;55.684;37.864;2023-07-24T22:21:12;98789.56;;;15.62;81.74
75208;BME280;63795;55.684;37.864;2023-07-24T22:26:12;98789.88;;;15.64;79.96
75208;BME280;63795;55.684;37.864;2023-07-24T22:31:13;98795.28;;;15.62;80.39
75208;BME280;63795;55.684;37.864;2023-07-24T22:36:13;98797.19;;;15.65;80.72
75208;BME280;63795;55.684;37.864;2023-07-24T22:41:14;98787.16;;;15.61;80.42
75208;BME280;63795;55.684;37.864;2023-07-24T22:46:14;98789.56;;;15.62;79.61
75208;BME280;63795;55.684;37.864;2023-07-24T22:51:15;98787.28;;;15.57;79.35
75208;BME280;63795;55.684;37.864;2023-07-24T22:56:16;98783.19;;;15.58;79.91
75208;BME280;63795;55.684;37.864;2023-07-24T23:01:16;98779.50;;;15.58;79.66
75208;BME280;63795;55.684;37.864;2023-07-24T23:06:17;98772.56;;;15.59;79.40
75208;BME280;63795;55.684;37.864;2023-07-24T23:11:17;98779.66;;;15.54;78.95
75208;BME280;63795;55.684;37.864;2023-07-24T23:16:18;98776.81;;;15.54;79.75
75208;BME280;63795;55.684;37.864;2023-07-24T23:21:18;98790.94;;;15.58;79.21
75208;BME280;63795;55.684;37.864;2023-07-24T23:26:19;98774.31;;;15.65;79.18
75208;BME280;63795;55.684;37.864;2023-07-24T23:31:19;98779.44;;;15.70;79.01
75208;BME280;63795;55.684;37.864;2023-07-24T23:36:20;98770.88;;;15.70;81.39
75208;BME280;63795;55.684;37.864;2023-07-24T23:41:20;98760.91;;;15.53;82.00
75208;BME280;63795;55.684;37.864;2023-07-24T23:46:21;98765.34;;;15.45;81.50
75208;BME280;63795;55.684;37.864;2023-07-24T23:51:22;98778.94;;;15.41;81.03
75208;BME280;63795;55.684;37.864;2023-07-24T23:56:23;98781.44;;;15.39;82.69
